sensor_id;sensor_type;location;lat;lon;timestamp;P1;durP1;ratioP1;P2;durP2;ratioP2
84521;SDS011;74758;50.066;20.008;2024-02-26T00:00:13;24.30;;;13.30;;
84521;SDS011;74758;50.066;20.008;2024-02-26T00:01:15;27.60;;;13.20;;
84521;SDS011;74758;50.066;20.008;2024-02-26T00:02:17;30.80;;;16.10;;
84521;SDS011;74758;50.066;20.008;2024-02-26T00:03:19;25.60;;;13.50;;
84521;SDS011;74758;50.066;20.008;2024-02-26T00:04:21;29.60;;;14.90;;
84521;SDS011;74758;50.066;20.008;2024-02-26T00:05:23;29.50;;;14.40;;
84521;SDS011;74758;50.066;20.008;2024-02-26T00:06:25;30.40;;;13.50;;
84521;SDS011;74758;50.066;20.008;2024-02-26T00:07:27;26.80;;;13.10;;
84521;SDS011;74758;50.066;20.008;2024-02-26T00:08:28;29.90;;;14.60;;
84521;SDS011;74758;50.066;20.008;2024-02-26T00:09:30;31.20;;;19.50;;
84521;SDS011;74758;50.066;20.008;2024-02-26T00:10:32;29.80;;;15.50;;
84521;SDS011;74758;50.066;20.008;2024-02-26T00:11:37;30.20;;;16.40;;
84521;SDS011;74758;50.066;20.008;2024-02-26T00:12:39;28.10;;;13.50;;
84521;SDS011;74758;50.066;20.008;2024-02-26T00:13:41;30.80;;;14.50;;
84521;SDS011;74758;50.066;20.008;2024-02-26T00:14:42;29.20;;;14.50;;
84521;SDS011;74758;50.066;20.008;2024-02-26T00:15:46;31.30;;;16.10;;
84521;SDS011;74758;50.066;20.008;2024-02-26T00:16:48;31.70;;;15.10;;
84521;SDS011;74758;50.066;20.008;2024-02-26T00:17:49;31.60;;;15.70;;
84521;SDS011;74758;50.066;20.008;2024-02-26T00:18:51;33.70;;;14.60;;
84521;SDS011;74758;50.066;20.008;2024-02-26T00:19:53;28.10;;;14.30;;
84521;SDS011;74758;50.066;20.008;2024-02-26T00:20:55;24.50;;;14.30;;
84521;SDS011;74758;50.066;20.008;2024-02-26T00:21:57;28.20;;;14.00;;
84521;SDS011;74758;50.066;20.008;2024-02-26T00:22:59;31.70;;;14.20;;
84521;SDS011;74758;50.066;20.008;2024-02-26T00:24:00;28.80;;;15.30;;
84521;SDS011;74758;50.066;20.008;2024-02-26T00:25:02;28.50;;;18.70;;
84521;SDS011;74758;50.066;20.008;2024-02-26T00:26:05;33.60;;;17.70;;
84521;SDS011;74758;50.066;20.008;2024-02-26T00:27:06;28.10;;;14.30;;
84521;SDS011;74758;50.066;20.008;2024-02-26T00:28:09;29.60;;;15.30;;
84521;SDS011;74758;50.066;20.008;2024-02-26T00:29:11;27.40;;;16.40;;
84521;SDS011;74758;50.066;20.008;2024-02-26T00:30:13;32.40;;;15.90;;
84521;SDS011;74758;50.066;20.008;2024-02-26T00:31:15;32.00;;;18.60;;
84521;SDS011;74758;50.066;20.008;2024-02-26T00:32:17;33.10;;;17.50;;
84521;SDS011;74758;50.066;20.008;2024-02-26T00:33:19;34.50;;;18.20;;
84521;SDS011;74758;50.066;20.008;2024-02-26T00:34:21;34.20;;;17.10;;
84521;SDS011;74758;50.066;20.008;2024-02-26T00:35:23;32.70;;;16.40;;
84521;SDS011;74758;50.066;20.008;2024-02-26T00:36:24;34.50;;;17.10;;
84521;SDS011;74758;50.066;20.008;2024-02-26T00:37:26;28.70;;;15.60;;
84521;SDS011;74758;50.066;20.008;2024-02-26T00:38:28;28.80;;;15.60;;
84521;SDS011;74758;50.066;20.008;2024-02-26T00:39:30;38.10;;;16.00;;
84521;SDS011;74758;50.066;20.008;2024-02-26T00:40:31;33.50;;;14.80;;
84521;SDS011;74758;50.066;20.008;2024-02-26T00:41:33;29.20;;;15.20;;
84521;SDS011;74758;50.066;20.008;2024-02-26T00:42:40;30.80;;;15.60;;
84521;SDS011;74758;50.066;20.008;2024-02-26T00:43:46;29.70;;;15.40;;
84521;SDS011;74758;50.066;20.008;2024-02-26T00:44:48;28.50;;;15.00;;
84521;SDS011;74758;50.066;20.008;2024-02-26T00:45:50;33.50;;;15.50;;
84521;SDS011;74758;50.066;20.008;2024-02-26T00:46:53;34.30;;;15.80;;
84521;SDS011;74758;50.066;20.008;2024-02-26T00:47:55;31.60;;;15.60;;
84521;SDS011;74758;50.066;20.008;2024-02-26T00:48:57;28.80;;;15.30;;
84521;SDS011;74758;50.066;20.008;2024-02-26T00:49:59;28.50;;;13.80;;
84521;SDS011;74758;50.066;20.008;2024-02-26T00:51:01;26.30;;;13.50;;
84521;SDS011;74758;50.066;20.008;2024-02-26T00:52:03;33.00;;;15.60;;
84521;SDS011;74758;50.066;20.008;2024-02-26T00:53:05;34.80;;;15.70;;
84521;SDS011;74758;50.066;20.008;2024-02-26T00:54:07;32.90;;;19.30;;
84521;SDS011;74758;50.066;20.008;2024-02-26T00:55:09;35.70;;;17.40;;
84521;SDS011;74758;50.066;20.008;2024-02-26T00:56:10;38.80;;;13.40;;
84521;SDS011;74758;50.066;20.008;2024-02-26T00:57:12;34.80;;;18.60;;
84521;SDS011;74758;50.066;20.008;2024-02-26T00:58:14;30.50;;;15.50;;
84521;SDS011;74758;50.066;20.008;2024-02-26T00:59:16;31.60;;;15.10;;
84521;SDS011;74758;50.066;20.008;2024-02-26T01:00:18;33.70;;;17.00;;
84521;SDS011;74758;50.066;20.008;2024-02-26T01:01:20;30.70;;;15.30;;
84521;SDS011;74758;50.066;20.008;2024-02-26T01:02:22;30.20;;;15.20;;
84521;SDS011;74758;50.066;20.008;2024-02-26T01:03:24;32.10;;;14.80;;
84521;SDS011;74758;50.066;20.008;2024-02-26T01:04:26;31.20;;;15.90;;
84521;SDS011;74758;50.066;20.008;2024-02-26T01:05:29;33.60;;;16.90;;
84521;SDS011;74758;50.066;20.008;2024-02-26T01:06:31;36.80;;;18.60;;
84521;SDS011;74758;50.066;20.008;2024-02-26T01:07:32;36.50;;;17.70;;
84521;SDS011;74758;50.066;20.008;2024-02-26T01:08:37;42.30;;;18.00;;
84521;SDS011;74758;50.066;20.008;2024-02-26T01:09:40;31.80;;;16.00;;
84521;SDS011;74758;50.066;20.008;2024-02-26T01:10:42;29.90;;;15.00;;
84521;SDS011;74758;50.066;20.008;2024-02-26T01:11:43;35.60;;;14.90;;
84521;SDS011;74758;50.066;20.008;2024-02-26T01:12:45;32.30;;;15.00;;
84521;SDS011;74758;50.066;20.008;2024-02-26T01:13:47;29.70;;;16.20;;
84521;SDS011;74758;50.066;20.008;2024-02-26T01:14:49;37.60;;;16.30;;
84521;SDS011;74758;50.066;20.008;2024-02-26T01:15:50;34.60;;;18.10;;
84521;SDS011;74758;50.066;20.008;2024-02-26T01:16:52;30.50;;;16.80;;
84521;SDS011;74758;50.066;20.008;2024-02-26T01:17:54;32.20;;;17.40;;
84521;SDS011;74758;50.066;20.008;2024-02-26T01:18:56;34.60;;;17.70;;
84521;SDS011;74758;50.066;20.008;2024-02-26T01:19:58;39.60;;;16.80;;
84521;SDS011;74758;50.066;20.008;2024-02-26T01:20:59;33.10;;;15.60;;
84521;SDS011;74758;50.066;20.008;2024-02-26T01:22:01;33.80;;;16.90;;
84521;SDS011;74758;50.066;20.008;2024-02-26T01:23:03;34.30;;;18.00;;
84521;SDS011;74758;50.066;20.008;2024-02-26T01:24:05;34.80;;;17.90;;
84521;SDS011;74758;50.066;20.008;2024-02-26T01:25:07;42.90;;;17.80;;
84521;SDS011;74758;50.066;20.008;2024-02-26T01:26:10;34.60;;;17.30;;
84521;SDS011;74758;50.066;20.008;2024-02-26T01:27:12;30.70;;;16.20;;
84521;SDS011;74758;50.066;20.008;2024-02-26T01:28:15;34.40;;;16.90;;
84521;SDS011;74758;50.066;20.008;2024-02-26T01:29:17;42.00;;;20.60;;
84521;SDS011;74758;50.066;20.008;2024-02-26T01:30:19;38.00;;;20.00;;
84521;SDS011;74758;50.066;20.008;2024-02-26T01:31:21;40.70;;;17.60;;
84521;SDS011;74758;50.066;20.008;2024-02-26T01:32:23;34.10;;;16.20;;
84521;SDS011;74758;50.066;20.008;2024-02-26T01:33:25;37.90;;;19.80;;
84521;SDS011;74758;50.066;20.008;2024-02-26T01:34:28;41.30;;;19.40;;
84521;SDS011;74758;50.066;20.008;2024-02-26T01:35:29;37.70;;;18.80;;
84521;SDS011;74758;50.066;20.008;2024-02-26T01:36:31;35.60;;;19.50;;
84521;SDS011;74758;50.066;20.008;2024-02-26T01:37:33;37.30;;;20.80;;
84521;SDS011;74758;50.066;20.008;2024-02-26T01:38:35;32.10;;;16.80;;
84521;SDS011;74758;50.066;20.008;2024-02-26T01:39:36;33.50;;;17.10;;
84521;SDS011;74758;50.066;20.008;2024-02-26T01:40:38;37.70;;;19.60;;
84521;SDS011;74758;50.066;20.008;2024-02-26T01:41:40;36.80;;;16.70;;
84521;SDS011;74758;50.066;20.008;2024-02-26T01:42:42;34.50;;;18.10;;
84521;SDS011;74758;50.066;20.008;2024-02-26T01:43:44;38.30;;;19.40;;
84521;SDS011;74758;50.066;20.008;2024-02-26T01:44:45;41.20;;;20.90;;
84521;SDS011;74758;50.066;20.008;2024-02-26T01:45:47;36.10;;;18.90;;
84521;SDS011;74758;50.066;20.008;2024-02-26T01:46:49;34.60;;;17.70;;
84521;SDS011;74758;50.066;20.008;2024-02-26T01:47:51;45.50;;;19.00;;
84521;SDS011;74758;50.066;20.008;2024-02-26T01:48:54;42.30;;;19.20;;
84521;SDS011;74758;50.066;20.008;2024-02-26T01:49:56;32.90;;;17.40;;
84521;SDS011;74758;50.066;20.008;2024-02-26T01:50:59;38.90;;;19.10;;
84521;SDS011;74758;50.066;20.008;2024-02-26T01:52:01;42.60;;;21.30;;
84521;SDS011;74758;50.066;20.008;2024-02-26T01:53:04;39.20;;;19.30;;
84521;SDS011;74758;50.066;20.008;2024-02-26T01:54:06;36.00;;;19.20;;
84521;SDS011;74758;50.066;20.008;2024-02-26T01:55:10;34.70;;;18.30;;
84521;SDS011;74758;50.066;20.008;2024-02-26T01:56:11;37.50;;;20.00;;
84521;SDS011;74758;50.066;20.008;2024-02-26T01:57:14;38.40;;;20.20;;
84521;SDS011;74758;50.066;20.008;2024-02-26T01:58:18;36.90;;;19.80;;
84521;SDS011;74758;50.066;20.008;2024-02-26T01:59:20;36.90;;;18.20;;
84521;SDS011;74758;50.066;20.008;2024-02-26T02:00:22;37.20;;;18.00;;
84521;SDS011;74758;50.066;20.008;2024-02-26T02:01:27;37.60;;;18.20;;
84521;SDS011;74758;50.066;20.008;2024-02-26T02:02:32;35.50;;;19.90;;
84521;SDS011;74758;50.066;20.008;2024-02-26T02:03:34;40.20;;;20.70;;
84521;SDS011;74758;50.066;20.008;2024-02-26T02:04:36;44.00;;;20.90;;
84521;SDS011;74758;50.066;20.008;2024-02-26T02:05:38;37.10;;;18.30;;
84521;SDS011;74758;50.066;20.008;2024-02-26T02:06:44;40.00;;;20.60;;
84521;SDS011;74758;50.066;20.008;2024-02-26T02:07:48;44.00;;;21.40;;
84521;SDS011;74758;50.066;20.008;2024-02-26T02:08:50;37.40;;;19.00;;
84521;SDS011;74758;50.066;20.008;2024-02-26T02:09:52;37.10;;;20.60;;
84521;SDS011;74758;50.066;20.008;2024-02-26T02:10:55;38.40;;;18.80;;
84521;SDS011;74758;50.066;20.008;2024-02-26T02:11:57;37.80;;;20.00;;
84521;SDS011;74758;50.066;20.008;2024-02-26T02:13:00;39.60;;;20.60;;
84521;SDS011;74758;50.066;20.008;2024-02-26T02:14:01;38.40;;;19.50;;
84521;SDS011;74758;50.066;20.008;2024-02-26T02:15:03;39.40;;;21.30;;
84521;SDS011;74758;50.066;20.008;2024-02-26T02:16:05;41.10;;;19.30;;
84521;SDS011;74758;50.066;20.008;2024-02-26T02:17:08;37.90;;;19.80;;
84521;SDS011;74758;50.066;20.008;2024-02-26T02:18:11;36.20;;;20.50;;
84521;SDS011;74758;50.066;20.008;2024-02-26T02:19:13;36.50;;;19.40;;
84521;SDS011;74758;50.066;20.008;2024-02-26T02:20:15;41.00;;;20.60;;
84521;SDS011;74758;50.066;20.008;2024-02-26T02:21:18;40.10;;;19.70;;
84521;SDS011;74758;50.066;20.008;2024-02-26T02:22:20;39.60;;;21.20;;
84521;SDS011;74758;50.066;20.008;2024-02-26T02:23:22;40.20;;;21.20;;
84521;SDS011;74758;50.066;20.008;2024-02-26T02:24:23;41.90;;;21.20;;
84521;SDS011;74758;50.066;20.008;2024-02-26T02:25:25;42.10;;;21.60;;
84521;SDS011;74758;50.066;20.008;2024-02-26T02:26:27;37.50;;;19.60;;
84521;SDS011;74758;50.066;20.008;2024-02-26T02:27:29;41.10;;;20.70;;
84521;SDS011;74758;50.066;20.008;2024-02-26T02:28:31;36.90;;;19.30;;
84521;SDS011;74758;50.066;20.008;2024-02-26T02:29:33;45.00;;;22.70;;
84521;SDS011;74758;50.066;20.008;2024-02-26T02:30:35;41.90;;;20.70;;
84521;SDS011;74758;50.066;20.008;2024-02-26T02:31:38;42.70;;;20.50;;
84521;SDS011;74758;50.066;20.008;2024-02-26T02:32:40;34.80;;;19.60;;
84521;SDS011;74758;50.066;20.008;2024-02-26T02:33:44;40.90;;;19.40;;
84521;SDS011;74758;50.066;20.008;2024-02-26T02:34:46;42.70;;;19.50;;
84521;SDS011;74758;50.066;20.008;2024-02-26T02:35:48;36.90;;;20.60;;
84521;SDS011;74758;50.066;20.008;2024-02-26T02:36:54;39.30;;;21.60;;
84521;SDS011;74758;50.066;20.008;2024-02-26T02:37:56;44.10;;;23.30;;
84521;SDS011;74758;50.066;20.008;2024-02-26T02:38:59;40.80;;;21.60;;
84521;SDS011;74758;50.066;20.008;2024-02-26T02:40:00;45.50;;;23.40;;
84521;SDS011;74758;50.066;20.008;2024-02-26T02:41:02;41.40;;;21.00;;
84521;SDS011;74758;50.066;20.008;2024-02-26T02:42:04;43.10;;;22.10;;
84521;SDS011;74758;50.066;20.008;2024-02-26T02:43:06;39.10;;;20.40;;
84521;SDS011;74758;50.066;20.008;2024-02-26T02:44:08;40.60;;;21.60;;
84521;SDS011;74758;50.066;20.008;2024-02-26T02:45:10;38.90;;;20.50;;
84521;SDS011;74758;50.066;20.008;2024-02-26T02:46:11;39.20;;;20.70;;
84521;SDS011;74758;50.066;20.008;2024-02-26T02:47:13;38.50;;;21.50;;
84521;SDS011;74758;50.066;20.008;2024-02-26T02:48:15;49.00;;;23.60;;
84521;SDS011;74758;50.066;20.008;2024-02-26T02:49:17;44.60;;;21.10;;
84521;SDS011;74758;50.066;20.008;2024-02-26T02:50:19;42.20;;;20.60;;
84521;SDS011;74758;50.066;20.008;2024-02-26T02:51:21;47.30;;;22.80;;
84521;SDS011;74758;50.066;20.008;2024-02-26T02:52:23;44.50;;;20.80;;
84521;SDS011;74758;50.066;20.008;2024-02-26T02:53:24;40.30;;;20.00;;
84521;SDS011;74758;50.066;20.008;2024-02-26T02:54:26;39.30;;;21.30;;
84521;SDS011;74758;50.066;20.008;2024-02-26T02:55:28;40.70;;;21.70;;
84521;SDS011;74758;50.066;20.008;2024-02-26T02:56:29;45.50;;;20.00;;
84521;SDS011;74758;50.066;20.008;2024-02-26T02:57:31;38.60;;;21.70;;
84521;SDS011;74758;50.066;20.008;2024-02-26T02:58:34;43.20;;;22.90;;
84521;SDS011;74758;50.066;20.008;2024-02-26T02:59:36;46.00;;;22.90;;
84521;SDS011;74758;50.066;20.008;2024-02-26T03:00:38;40.00;;;20.10;;
84521;SDS011;74758;50.066;20.008;2024-02-26T03:01:40;42.70;;;22.00;;
84521;SDS011;74758;50.066;20.008;2024-02-26T03:02:42;44.50;;;22.20;;
84521;SDS011;74758;50.066;20.008;2024-02-26T03:03:46;43.70;;;22.60;;
84521;SDS011;74758;50.066;20.008;2024-02-26T03:04:48;43.90;;;23.90;;
84521;SDS011;74758;50.066;20.008;2024-02-26T03:05:50;46.10;;;24.70;;
84521;SDS011;74758;50.066;20.008;2024-02-26T03:06:51;43.30;;;22.80;;
84521;SDS011;74758;50.066;20.008;2024-02-26T03:07:53;42.60;;;22.00;;
84521;SDS011;74758;50.066;20.008;2024-02-26T03:08:55;44.30;;;22.20;;
84521;SDS011;74758;50.066;20.008;2024-02-26T03:09:57;43.80;;;21.50;;
84521;SDS011;74758;50.066;20.008;2024-02-26T03:10:58;41.00;;;20.30;;
84521;SDS011;74758;50.066;20.008;2024-02-26T03:12:01;44.20;;;21.70;;
84521;SDS011;74758;50.066;20.008;2024-02-26T03:13:03;40.70;;;21.20;;
84521;SDS011;74758;50.066;20.008;2024-02-26T03:14:05;45.60;;;22.10;;
84521;SDS011;74758;50.066;20.008;2024-02-26T03:15:07;44.30;;;21.20;;
84521;SDS011;74758;50.066;20.008;2024-02-26T03:16:10;40.40;;;21.70;;
84521;SDS011;74758;50.066;20.008;2024-02-26T03:17:12;44.20;;;22.50;;
84521;SDS011;74758;50.066;20.008;2024-02-26T03:18:13;44.50;;;22.30;;
84521;SDS011;74758;50.066;20.008;2024-02-26T03:19:15;42.10;;;21.70;;
84521;SDS011;74758;50.066;20.008;2024-02-26T03:20:18;43.20;;;22.40;;
84521;SDS011;74758;50.066;20.008;2024-02-26T03:21:21;42.70;;;21.80;;
84521;SDS011;74758;50.066;20.008;2024-02-26T03:22:22;43.00;;;22.70;;
84521;SDS011;74758;50.066;20.008;2024-02-26T03:23:24;45.30;;;25.20;;
84521;SDS011;74758;50.066;20.008;2024-02-26T03:24:26;42.90;;;23.60;;
84521;SDS011;74758;50.066;20.008;2024-02-26T03:25:27;43.90;;;22.20;;
84521;SDS011;74758;50.066;20.008;2024-02-26T03:26:29;41.40;;;21.00;;
84521;SDS011;74758;50.066;20.008;2024-02-26T03:27:32;44.00;;;22.90;;
84521;SDS011;74758;50.066;20.008;2024-02-26T03:28:34;39.60;;;21.50;;
84521;SDS011;74758;50.066;20.008;2024-02-26T03:29:36;40.30;;;22.50;;
84521;SDS011;74758;50.066;20.008;2024-02-26T03:30:39;44.90;;;22.70;;
84521;SDS011;74758;50.066;20.008;2024-02-26T03:31:40;45.40;;;22.40;;
84521;SDS011;74758;50.066;20.008;2024-02-26T03:32:42;44.50;;;21.30;;
84521;SDS011;74758;50.066;20.008;2024-02-26T03:33:44;44.60;;;21.60;;
84521;SDS011;74758;50.066;20.008;2024-02-26T03:34:46;42.80;;;22.70;;
84521;SDS011;74758;50.066;20.008;2024-02-26T03:35:48;40.20;;;22.40;;
84521;SDS011;74758;50.066;20.008;2024-02-26T03:36:50;39.80;;;21.30;;
84521;SDS011;74758;50.066;20.008;2024-02-26T03:37:51;42.00;;;22.20;;
84521;SDS011;74758;50.066;20.008;2024-02-26T03:38:53;38.80;;;20.20;;
84521;SDS011;74758;50.066;20.008;2024-02-26T03:39:55;39.30;;;20.90;;
84521;SDS011;74758;50.066;20.008;2024-02-26T03:40:58;35.70;;;21.20;;
84521;SDS011;74758;50.066;20.008;2024-02-26T03:42:00;38.50;;;20.80;;
84521;SDS011;74758;50.066;20.008;2024-02-26T03:43:02;41.00;;;20.80;;
84521;SDS011;74758;50.066;20.008;2024-02-26T03:44:05;42.40;;;21.00;;
84521;SDS011;74758;50.066;20.008;2024-02-26T03:45:07;41.30;;;20.70;;
84521;SDS011;74758;50.066;20.008;2024-02-26T03:46:11;43.00;;;22.90;;
84521;SDS011;74758;50.066;20.008;2024-02-26T03:47:15;42.10;;;21.90;;
84521;SDS011;74758;50.066;20.008;2024-02-26T03:48:17;41.20;;;21.90;;
84521;SDS011;74758;50.066;20.008;2024-02-26T03:49:19;45.70;;;22.40;;
84521;SDS011;74758;50.066;20.008;2024-02-26T03:50:21;39.70;;;22.10;;
84521;SDS011;74758;50.066;20.008;2024-02-26T03:51:22;43.80;;;21.20;;
84521;SDS011;74758;50.066;20.008;2024-02-26T03:52:24;42.10;;;21.00;;
84521;SDS011;74758;50.066;20.008;2024-02-26T03:53:26;43.00;;;22.50;;
84521;SDS011;74758;50.066;20.008;2024-02-26T03:54:28;40.20;;;23.10;;
84521;SDS011;74758;50.066;20.008;2024-02-26T03:55:29;47.30;;;22.40;;
84521;SDS011;74758;50.066;20.008;2024-02-26T03:56:31;47.20;;;22.40;;
84521;SDS011;74758;50.066;20.008;2024-02-26T03:57:33;41.70;;;23.10;;
84521;SDS011;74758;50.066;20.008;2024-02-26T03:58:34;41.80;;;22.40;;
84521;SDS011;74758;50.066;20.008;2024-02-26T03:59:36;42.00;;;22.20;;
84521;SDS011;74758;50.066;20.008;2024-02-26T04:00:38;44.40;;;24.00;;
84521;SDS011;74758;50.066;20.008;2024-02-26T04:01:44;44.60;;;20.60;;
84521;SDS011;74758;50.066;20.008;2024-02-26T04:02:47;42.60;;;21.20;;
84521;SDS011;74758;50.066;20.008;2024-02-26T04:03:49;42.40;;;22.30;;
84521;SDS011;74758;50.066;20.008;2024-02-26T04:04:51;40.60;;;22.40;;
84521;SDS011;74758;50.066;20.008;2024-02-26T04:05:53;46.50;;;24.00;;
84521;SDS011;74758;50.066;20.008;2024-02-26T04:06:55;48.40;;;24.50;;
84521;SDS011;74758;50.066;20.008;2024-02-26T04:07:57;38.40;;;21.80;;
84521;SDS011;74758;50.066;20.008;2024-02-26T04:08:59;37.10;;;21.80;;
84521;SDS011;74758;50.066;20.008;2024-02-26T04:10:00;43.90;;;22.00;;
84521;SDS011;74758;50.066;20.008;2024-02-26T04:11:07;39.50;;;22.90;;
84521;SDS011;74758;50.066;20.008;2024-02-26T04:12:09;41.70;;;22.10;;
84521;SDS011;74758;50.066;20.008;2024-02-26T04:13:11;40.30;;;22.50;;
84521;SDS011;74758;50.066;20.008;2024-02-26T04:14:13;43.90;;;21.90;;
84521;SDS011;74758;50.066;20.008;2024-02-26T04:15:14;46.00;;;21.90;;
84521;SDS011;74758;50.066;20.008;2024-02-26T04:16:16;44.40;;;22.60;;
84521;SDS011;74758;50.066;20.008;2024-02-26T04:17:18;47.90;;;24.20;;
84521;SDS011;74758;50.066;20.008;2024-02-26T04:18:19;44.20;;;23.90;;
84521;SDS011;74758;50.066;20.008;2024-02-26T04:19:21;45.40;;;22.40;;
84521;SDS011;74758;50.066;20.008;2024-02-26T04:20:23;46.40;;;23.20;;
84521;SDS011;74758;50.066;20.008;2024-02-26T04:21:25;43.90;;;21.90;;
84521;SDS011;74758;50.066;20.008;2024-02-26T04:22:27;42.40;;;22.30;;
84521;SDS011;74758;50.066;20.008;2024-02-26T04:23:29;42.70;;;22.70;;
84521;SDS011;74758;50.066;20.008;2024-02-26T04:24:30;40.60;;;23.40;;
84521;SDS011;74758;50.066;20.008;2024-02-26T04:25:32;47.30;;;22.90;;
84521;SDS011;74758;50.066;20.008;2024-02-26T04:26:34;44.70;;;22.40;;
84521;SDS011;74758;50.066;20.008;2024-02-26T04:27:36;42.60;;;21.60;;
84521;SDS011;74758;50.066;20.008;2024-02-26T04:28:38;51.40;;;24.30;;
84521;SDS011;74758;50.066;20.008;2024-02-26T04:29:39;45.20;;;25.20;;
84521;SDS011;74758;50.066;20.008;2024-02-26T04:30:41;51.00;;;24.80;;
84521;SDS011;74758;50.066;20.008;2024-02-26T04:31:43;46.60;;;24.20;;
84521;SDS011;74758;50.066;20.008;2024-02-26T04:32:45;46.60;;;23.60;;
84521;SDS011;74758;50.066;20.008;2024-02-26T04:33:47;44.20;;;23.40;;
84521;SDS011;74758;50.066;20.008;2024-02-26T04:34:48;48.90;;;22.30;;
84521;SDS011;74758;50.066;20.008;2024-02-26T04:35:50;48.00;;;24.20;;
84521;SDS011;74758;50.066;20.008;2024-02-26T04:36:52;46.70;;;24.70;;
84521;SDS011;74758;50.066;20.008;2024-02-26T04:37:54;44.30;;;24.20;;
84521;SDS011;74758;50.066;20.008;2024-02-26T04:38:56;46.10;;;23.00;;
84521;SDS011;74758;50.066;20.008;2024-02-26T04:40:01;48.80;;;24.70;;
84521;SDS011;74758;50.066;20.008;2024-02-26T04:41:03;52.60;;;24.30;;
84521;SDS011;74758;50.066;20.008;2024-02-26T04:42:07;51.90;;;25.50;;
84521;SDS011;74758;50.066;20.008;2024-02-26T04:43:09;49.10;;;24.30;;
84521;SDS011;74758;50.066;20.008;2024-02-26T04:44:11;45.30;;;23.50;;
84521;SDS011;74758;50.066;20.008;2024-02-26T04:45:13;49.80;;;24.20;;
84521;SDS011;74758;50.066;20.008;2024-02-26T04:46:15;46.90;;;24.10;;
84521;SDS011;74758;50.066;20.008;2024-02-26T04:47:16;46.70;;;22.80;;
84521;SDS011;74758;50.066;20.008;2024-02-26T04:48:18;42.30;;;23.10;;
84521;SDS011;74758;50.066;20.008;2024-02-26T04:49:20;50.60;;;23.60;;
84521;SDS011;74758;50.066;20.008;2024-02-26T04:50:22;46.10;;;24.20;;
84521;SDS011;74758;50.066;20.008;2024-02-26T04:51:23;52.70;;;28.30;;
84521;SDS011;74758;50.066;20.008;2024-02-26T04:52:25;50.60;;;25.70;;
84521;SDS011;74758;50.066;20.008;2024-02-26T04:53:27;46.30;;;23.70;;
84521;SDS011;74758;50.066;20.008;2024-02-26T04:54:29;46.80;;;25.20;;
84521;SDS011;74758;50.066;20.008;2024-02-26T04:55:31;44.80;;;24.80;;
84521;SDS011;74758;50.066;20.008;2024-02-26T04:56:32;43.40;;;23.60;;
84521;SDS011;74758;50.066;20.008;2024-02-26T04:57:34;54.10;;;25.80;;
84521;SDS011;74758;50.066;20.008;2024-02-26T04:58:36;48.00;;;26.10;;
84521;SDS011;74758;50.066;20.008;2024-02-26T04:59:37;49.60;;;26.20;;
84521;SDS011;74758;50.066;20.008;2024-02-26T05:00:39;48.70;;;24.40;;
84521;SDS011;74758;50.066;20.008;2024-02-26T05:01:41;54.80;;;27.10;;
84521;SDS011;74758;50.066;20.008;2024-02-26T05:02:43;54.40;;;25.60;;
84521;SDS011;74758;50.066;20.008;2024-02-26T05:03:45;48.60;;;24.80;;
84521;SDS011;74758;50.066;20.008;2024-02-26T05:04:46;47.80;;;24.40;;
84521;SDS011;74758;50.066;20.008;2024-02-26T05:05:48;55.00;;;26.60;;
84521;SDS011;74758;50.066;20.008;2024-02-26T05:06:50;48.10;;;27.60;;
84521;SDS011;74758;50.066;20.008;2024-02-26T05:07:52;52.40;;;25.20;;
84521;SDS011;74758;50.066;20.008;2024-02-26T05:08:53;55.10;;;25.00;;
84521;SDS011;74758;50.066;20.008;2024-02-26T05:09:55;52.20;;;27.90;;
84521;SDS011;74758;50.066;20.008;2024-02-26T05:10:57;49.80;;;26.60;;
84521;SDS011;74758;50.066;20.008;2024-02-26T05:11:59;48.50;;;25.80;;
84521;SDS011;74758;50.066;20.008;2024-02-26T05:13:00;53.80;;;26.60;;
84521;SDS011;74758;50.066;20.008;2024-02-26T05:14:03;49.80;;;23.80;;
84521;SDS011;74758;50.066;20.008;2024-02-26T05:15:04;52.30;;;25.60;;
84521;SDS011;74758;50.066;20.008;2024-02-26T05:16:07;54.90;;;26.20;;
84521;SDS011;74758;50.066;20.008;2024-02-26T05:17:08;53.20;;;26.30;;
84521;SDS011;74758;50.066;20.008;2024-02-26T05:18:10;55.00;;;26.70;;
84521;SDS011;74758;50.066;20.008;2024-02-26T05:19:12;53.80;;;23.60;;
84521;SDS011;74758;50.066;20.008;2024-02-26T05:20:14;51.80;;;25.70;;
84521;SDS011;74758;50.066;20.008;2024-02-26T05:21:16;55.60;;;25.40;;
84521;SDS011;74758;50.066;20.008;2024-02-26T05:22:17;53.40;;;25.60;;
84521;SDS011;74758;50.066;20.008;2024-02-26T05:23:19;46.70;;;25.40;;
84521;SDS011;74758;50.066;20.008;2024-02-26T05:24:24;49.70;;;26.00;;
84521;SDS011;74758;50.066;20.008;2024-02-26T05:25:26;49.50;;;24.40;;
84521;SDS011;74758;50.066;20.008;2024-02-26T05:26:27;48.50;;;24.50;;
84521;SDS011;74758;50.066;20.008;2024-02-26T05:27:29;58.30;;;27.30;;
84521;SDS011;74758;50.066;20.008;2024-02-26T05:28:30;49.20;;;24.20;;
84521;SDS011;74758;50.066;20.008;2024-02-26T05:29:32;59.00;;;26.30;;
84521;SDS011;74758;50.066;20.008;2024-02-26T05:30:34;51.50;;;24.90;;
84521;SDS011;74758;50.066;20.008;2024-02-26T05:31:36;52.40;;;24.70;;
84521;SDS011;74758;50.066;20.008;2024-02-26T05:32:38;50.10;;;26.50;;
84521;SDS011;74758;50.066;20.008;2024-02-26T05:33:39;54.30;;;25.40;;
84521;SDS011;74758;50.066;20.008;2024-02-26T05:34:42;54.60;;;26.20;;
84521;SDS011;74758;50.066;20.008;2024-02-26T05:35:43;51.70;;;25.90;;
84521;SDS011;74758;50.066;20.008;2024-02-26T05:36:46;54.20;;;26.20;;
84521;SDS011;74758;50.066;20.008;2024-02-26T05:37:48;55.30;;;25.80;;
84521;SDS011;74758;50.066;20.008;2024-02-26T05:38:49;53.40;;;24.90;;
84521;SDS011;74758;50.066;20.008;2024-02-26T05:39:51;59.40;;;26.30;;
84521;SDS011;74758;50.066;20.008;2024-02-26T05:40:54;49.40;;;25.80;;
84521;SDS011;74758;50.066;20.008;2024-02-26T05:41:55;46.90;;;25.60;;
84521;SDS011;74758;50.066;20.008;2024-02-26T05:42:57;53.40;;;25.10;;
84521;SDS011;74758;50.066;20.008;2024-02-26T05:43:59;48.00;;;24.20;;
84521;SDS011;74758;50.066;20.008;2024-02-26T05:45:00;56.40;;;25.60;;
84521;SDS011;74758;50.066;20.008;2024-02-26T05:46:07;50.90;;;25.80;;
84521;SDS011;74758;50.066;20.008;2024-02-26T05:47:09;54.20;;;26.60;;
84521;SDS011;74758;50.066;20.008;2024-02-26T05:48:11;54.20;;;26.50;;
84521;SDS011;74758;50.066;20.008;2024-02-26T05:49:13;54.20;;;26.10;;
84521;SDS011;74758;50.066;20.008;2024-02-26T05:50:15;51.60;;;24.40;;
84521;SDS011;74758;50.066;20.008;2024-02-26T05:51:17;50.30;;;26.10;;
84521;SDS011;74758;50.066;20.008;2024-02-26T05:52:19;54.20;;;25.10;;
84521;SDS011;74758;50.066;20.008;2024-02-26T05:53:21;51.20;;;25.90;;
84521;SDS011;74758;50.066;20.008;2024-02-26T05:54:22;50.60;;;26.00;;
84521;SDS011;74758;50.066;20.008;2024-02-26T05:55:24;50.60;;;26.70;;
84521;SDS011;74758;50.066;20.008;2024-02-26T05:56:26;51.90;;;25.10;;
84521;SDS011;74758;50.066;20.008;2024-02-26T05:57:28;55.50;;;26.60;;